Seabourn Legend — C6FR6 — position and weather

sailwx.info

Track history (hours):
 
Tides and Currents Weather Stations Pressure Air Temp Water Temp Dewpoint Dewpoint Depression Visibility Wind Speed Wind Dir Waves Ship Positions

Seabourn Legend

Operator: Cunard Seabourn

Last reported at 2017-Aug-18 10:07 UTC. Time now 2017-Aug-18 10:51 UTC.
Position N 47°38' W 004°45'.

Length 135 m; draft 5.7 m.

Type: Passenger vessel. MMSI: 311085000.

Date/timePositionNaut miles runAvg speedWind from/ knotsBaromVisibWave heightAir tempDewpointWater temp
2017-Aug-18 10:07N 47°38' W 004°45'212.2
2017-Aug-18 09:57N 47°39' W 004°47'612.2
2017-Aug-18 09:30N 47°42' W 004°54'611.9
2017-Aug-18 08:58N 47°46' W 005°01'511.9
2017-Aug-18 08:31N 47°49' W 005°08'611.6
2017-Aug-18 07:59N 47°53' W 005°15'3412.4
2017-Aug-18 05:14N 48°26' W 005°27'312.9
2017-Aug-18 05:00N 48°29' W 005°25'612.7
2017-Aug-18 04:30N 48°34' W 005°21'612.1
2017-Aug-18 04:00N 48°39' W 005°15'611.3
2017-Aug-18 03:30N 48°42' W 005°08'510.8
2017-Aug-18 03:00N 48°45' W 005°01'510.7
2017-Aug-18 02:30N 48°47' W 004°54'510.4
2017-Aug-18 02:00N 48°50' W 004°46'510.1
2017-Aug-18 01:30N 48°51' W 004°39'510.0
2017-Aug-18 01:00N 48°53' W 004°32'5110.9
2017-Aug-17 20:22N 48°60' W 003°16'43 1.6
2017-Aug-16 17:13N 49°22' W 004°12'1711.8
2017-Aug-16 15:46N 49°29' W 004°37'811.7
2017-Aug-16 15:05N 49°31' W 004°48'113.5
2017-Aug-16 14:59N 49°32' W 004°50'713.5
2017-Aug-16 14:28N 49°35' W 004°60'613.5
2017-Aug-16 14:00N 49°37' W 005°09'713.7
2017-Aug-16 13:29N 49°40' W 005°18'4611.7
2017-Aug-16 09:33N 50°18' W 005°60'112.8
2017-Aug-16 09:27N 50°19' W 005°60'1813.2
2017-Aug-16 08:04N 50°37' W 005°60'113.4
2017-Aug-16 07:57N 50°39' W 005°60'613.5
2017-Aug-16 07:30N 50°45' W 006°00'713.7
2017-Aug-16 06:57N 50°52' W 006°00'4913.7
2017-Aug-16 03:23N 51°41' W 005°59'612.9
2017-Aug-16 02:57N 51°47' W 005°57'612.7
2017-Aug-16 02:30N 51°52' W 005°54'612.2
2017-Aug-16 01:59N 51°58' W 005°52'612.1
2017-Aug-16 01:30N 52°04' W 005°51'612.0
2017-Aug-16 01:00N 52°10' W 005°49'611.8
2017-Aug-16 00:30N 52°16' W 005°47'612.8
2017-Aug-16 00:00N 52°22' W 005°46'713.1
2017-Aug-15 23:30N 52°29' W 005°44'713.6
2017-Aug-15 22:58N 52°36' W 005°45'714.1
2017-Aug-15 22:27N 52°43' W 005°45'65 3.2
2017-Aug-15 02:04N 53°47' W 005°30'912.4
2017-Aug-15 01:20N 53°55' W 005°24'713.9
2017-Aug-15 00:51N 54°02' W 005°20'514.3
2017-Aug-15 00:29N 54°06' W 005°16'714.4
2017-Aug-15 00:00N 54°13' W 005°12'715.0
2017-Aug-14 23:31N 54°20' W 005°11'815.0
2017-Aug-14 23:01N 54°28' W 005°11'815.0
2017-Aug-14 22:31N 54°35' W 005°11'713.5
2017-Aug-14 22:00N 54°42' W 005°14'713.9
2017-Aug-14 21:30N 54°47' W 005°21'713.5
2017-Aug-14 21:00N 54°53' W 005°28'713.3
2017-Aug-14 20:30N 54°58' W 005°36'1112.9
2017-Aug-14 19:38N 55°07' W 005°47'212.4
2017-Aug-14 19:30N 55°08' W 005°49'811.5
2017-Aug-14 18:51N 55°14' W 005°57'411.1
2017-Aug-14 18:30N 55°17' W 006°01'611.8
2017-Aug-14 18:00N 55°21' W 006°09'612.2
2017-Aug-14 17:30N 55°23' W 006°19'611.2
2017-Aug-14 17:00N 55°27' W 006°27'611.9
2017-Aug-14 16:30N 55°31' W 006°35'612.8
2017-Aug-14 16:00N 55°35' W 006°43'713.2
2017-Aug-14 15:30N 55°40' W 006°51'713.4
2017-Aug-14 15:00N 55°46' W 006°57'713.3
2017-Aug-14 14:28N 55°52' W 007°02'19710.8
2017-Aug-13 20:14N 58°48' W 004°16'312.1
2017-Aug-13 20:00N 58°48' W 004°11'612.7
2017-Aug-13 19:30N 58°50' W 003°59'612.6
2017-Aug-13 19:01N 58°51' W 003°47'612.2
2017-Aug-13 18:30N 58°53' W 003°36'4 8.5
2017-Aug-13 18:00N 58°53' W 003°27'713.3
2017-Aug-13 17:29N 58°47' W 003°21'714.4
2017-Aug-13 17:00N 58°44' W 003°09'816.5
2017-Aug-13 16:30N 58°43' W 002°53'812.7
2017-Aug-13 15:54N 58°48' W 002°43'514.1
2017-Aug-13 15:31N 58°53' W 002°38'612.7
2017-Aug-13 15:00N 58°59' W 002°39'612.9
2017-Aug-13 14:30N 59°01' W 002°51'4 6.7
2017-Aug-13 13:58N 59°00' W 002°59'0 0.0
2017-Aug-13 13:30N 59°00' W 002°59'0 0.0
2017-Aug-13 13:00N 59°00' W 002°59'0 0.0
2017-Aug-13 12:30N 59°00' W 002°59'0 0.0
2017-Aug-13 12:00N 59°00' W 002°59'0 0.0
2017-Aug-13 11:30N 59°00' W 002°59'0 0.0
2017-Aug-13 10:59N 59°00' W 002°59'0 0.0
2017-Aug-13 10:29N 59°00' W 002°59'0 0.0
2017-Aug-13 09:59N 59°00' W 002°59'0 0.0
2017-Aug-13 09:29N 59°00' W 002°59'0 0.0
2017-Aug-13 08:59N 59°00' W 002°59'0 0.0
2017-Aug-13 08:28N 59°00' W 002°59'0 0.0
2017-Aug-13 07:58N 59°00' W 002°59'0 0.0
2017-Aug-13 07:28N 59°00' W 002°59'0 0.0
2017-Aug-13 06:58N 59°00' W 002°59'0 0.0
2017-Aug-13 06:30N 59°00' W 002°59'0 0.0
2017-Aug-13 06:00N 59°00' W 002°59'0 0.7
2017-Aug-13 05:30N 59°00' W 002°58'4 7.2
2017-Aug-13 05:00N 59°01' W 002°51'5 9.9
2017-Aug-13 04:30N 59°00' W 002°41'712.8
2017-Aug-13 03:56N 59°01' W 002°27'222 7.7
2017-Aug-11 23:19N 60°08' E 004°30'2 5.0
2017-Aug-11 23:00N 60°08' E 004°33'2 4.6
2017-Aug-11 22:30N 60°08' E 004°38'3 5.0
2017-Aug-11 21:59N 60°08' E 004°43'2 4.8
2017-Aug-11 21:30N 60°08' E 004°48'2 5.0
2017-Aug-11 21:00N 60°08' E 004°53'2 4.9
2017-Aug-11 20:30N 60°08' E 004°58'2 4.8
2017-Aug-11 20:00N 60°09' E 005°02'4 7.2
2017-Aug-11 19:30N 60°10' E 005°09'4 8.7
2017-Aug-11 19:00N 60°15' E 005°09'5 9.1
2017-Aug-11 18:30N 60°19' E 005°12'4 8.0
2017-Aug-11 18:00N 60°23' E 005°10'5 9.1
2017-Aug-11 17:30N 60°24' E 005°19'0 0.1
2017-Aug-11 17:00N 60°24' E 005°19'0 0.0
2017-Aug-11 16:30N 60°24' E 005°19'0 0.0
2017-Aug-11 15:59N 60°24' E 005°19'0 0.0
2017-Aug-11 15:29N 60°24' E 005°19'0 0.0
2017-Aug-11 14:59N 60°24' E 005°19'0 0.0
2017-Aug-11 13:58N 60°24' E 005°19'0 0.0
2017-Aug-11 13:28N 60°24' E 005°19'0 0.0
2017-Aug-11 12:58N 60°24' E 005°19'0 0.0
2017-Aug-11 12:28N 60°24' E 005°19'0 0.0
2017-Aug-11 12:00N 60°24' E 005°19'0 0.0
2017-Aug-11 11:30N 60°24' E 005°19'0 0.0
2017-Aug-11 11:00N 60°24' E 005°19'0 0.0
2017-Aug-11 10:30N 60°24' E 005°19'0 0.0
2017-Aug-11 09:56N 60°24' E 005°19'0 0.0
2017-Aug-11 09:29N 60°24' E 005°19'0 0.0
2017-Aug-11 08:59N 60°24' E 005°19'0 0.0
2017-Aug-11 08:29N 60°24' E 005°19'0 0.0
2017-Aug-11 07:59N 60°24' E 005°19'0 0.1
2017-Aug-11 07:30N 60°24' E 005°19'4 8.1
2017-Aug-11 07:00N 60°23' E 005°11'611.0
2017-Aug-11 06:29N 60°26' E 005°02'511.2
2017-Aug-11 06:00N 60°31' E 004°57'611.2
2017-Aug-11 05:30N 60°37' E 004°53'611.3
2017-Aug-11 05:00N 60°42' E 004°49'611.2
2017-Aug-11 04:30N 60°47' E 004°45'510.2
2017-Aug-11 04:00N 60°51' E 004°39'5 9.9
2017-Aug-11 03:30N 60°54' E 004°30'5 9.5
2017-Aug-11 03:00N 60°57' E 004°23'5 9.4
2017-Aug-11 02:30N 61°01' E 004°16'53 8.2
2017-Aug-10 19:59N 61°54' E 004°25'4 9.0
2017-Aug-10 19:30N 61°57' E 004°29'4 8.9
2017-Aug-10 19:00N 62°01' E 004°34'4 8.8
2017-Aug-10 18:30N 62°05' E 004°39'5 9.0
2017-Aug-10 18:00N 62°09' E 004°43'5 9.3
2017-Aug-10 17:30N 62°13' E 004°48'5 9.4
2017-Aug-10 17:00N 62°17' E 004°53'510.0
2017-Aug-10 16:30N 62°21' E 005°00'510.4
2017-Aug-10 15:59N 62°24' E 005°10'510.7
2017-Aug-10 15:29N 62°27' E 005°19'511.0
2017-Aug-10 15:00N 62°30' E 005°29'510.8
2017-Aug-10 14:30N 62°30' E 005°41'712.4
2017-Aug-10 13:58N 62°27' E 005°54'511.9
2017-Aug-10 13:30N 62°27' E 006°06'2 4.2
2017-Aug-10 13:00N 62°28' E 006°09'0 0.0
2017-Aug-10 12:30N 62°28' E 006°09'0 0.0
2017-Aug-10 12:00N 62°28' E 006°09'0 0.0
2017-Aug-10 11:30N 62°28' E 006°09'0 0.0
2017-Aug-10 10:59N 62°28' E 006°09'0 0.0
2017-Aug-10 10:29N 62°28' E 006°09'0 0.0
2017-Aug-10 09:59N 62°28' E 006°09'0 0.0
2017-Aug-10 09:29N 62°28' E 006°09'0 0.0
2017-Aug-10 08:59N 62°28' E 006°09'0 0.0
2017-Aug-10 08:28N 62°28' E 006°09'0 0.0
2017-Aug-10 07:58N 62°28' E 006°09'0 0.0
2017-Aug-10 07:28N 62°28' E 006°09'0 0.0
2017-Aug-10 06:58N 62°28' E 006°09'0 0.0
2017-Aug-10 06:30N 62°28' E 006°09'0 0.0
2017-Aug-10 05:57N 62°28' E 006°09'0 0.0
2017-Aug-10 05:30N 62°28' E 006°09'0 0.0
2017-Aug-10 05:00N 62°28' E 006°09'0 0.0
2017-Aug-10 04:30N 62°28' E 006°09'0 0.0
2017-Aug-10 03:59N 62°28' E 006°09'0 0.0
2017-Aug-10 03:29N 62°28' E 006°09'0 0.0
2017-Aug-10 02:59N 62°28' E 006°09'0 0.0
2017-Aug-10 02:26N 62°28' E 006°09'0 0.0
2017-Aug-10 01:58N 62°28' E 006°09'0 0.0
2017-Aug-10 01:28N 62°28' E 006°09'0 0.1
2017-Aug-10 01:00N 62°28' E 006°09'1 2.3
2017-Aug-10 00:30N 62°27' E 006°09'4 7.1
2017-Aug-10 00:00N 62°24' E 006°04'611.5
2017-Aug-09 23:29N 62°24' E 006°17'611.6
2017-Aug-09 23:00N 62°25' E 006°29'611.7
2017-Aug-09 22:30N 62°27' E 006°41'611.2
2017-Aug-09 22:00N 62°26' E 006°53'510.6
2017-Aug-09 21:29N 62°21' E 006°56'511.2
2017-Aug-09 21:00N 62°16' E 007°01'611.7
2017-Aug-09 20:30N 62°10' E 007°01'4 8.9
2017-Aug-09 20:00N 62°06' E 007°00'3 5.8
2017-Aug-09 19:30N 62°06' E 007°06'2 3.1
2017-Aug-09 19:00N 62°07' E 007°09'1 2.4
2017-Aug-09 18:29N 62°06' E 007°11'0 0.0
2017-Aug-09 17:59N 62°06' E 007°11'0 0.0
2017-Aug-09 17:28N 62°06' E 007°11'0 0.0
2017-Aug-09 16:58N 62°06' E 007°11'0 0.0
2017-Aug-09 16:28N 62°06' E 007°11'0 0.0
2017-Aug-09 15:58N 62°06' E 007°11'0 0.0
2017-Aug-09 15:30N 62°06' E 007°11'0 0.0
2017-Aug-09 15:00N 62°06' E 007°11'0 0.0
2017-Aug-09 14:30N 62°06' E 007°11'0 0.0
2017-Aug-09 14:00N 62°06' E 007°11'0 0.0
2017-Aug-09 13:30N 62°06' E 007°11'0 0.0
2017-Aug-09 12:59N 62°06' E 007°11'0 0.0
2017-Aug-09 12:29N 62°06' E 007°11'0 0.0
2017-Aug-09 11:59N 62°06' E 007°11'0 0.0
2017-Aug-09 11:29N 62°06' E 007°11'0 0.0
2017-Aug-09 10:59N 62°06' E 007°11'0 0.0
2017-Aug-09 10:29N 62°06' E 007°11'0 0.0
2017-Aug-09 09:59N 62°06' E 007°11'0 0.0
2017-Aug-09 09:29N 62°06' E 007°11'0 0.0
2017-Aug-09 08:59N 62°06' E 007°11'0 0.0
2017-Aug-09 08:29N 62°06' E 007°11'0 0.0
2017-Aug-09 08:00N 62°06' E 007°11'0 0.0
2017-Aug-09 07:30N 62°06' E 007°11'0 0.0
2017-Aug-09 06:59N 62°06' E 007°11'0 0.0
2017-Aug-09 06:29N 62°06' E 007°11'0 0.0
2017-Aug-09 05:59N 62°06' E 007°11'6 5.6
2017-Aug-09 04:58N 62°06' E 006°59'4 9.5
2017-Aug-09 04:30N 62°10' E 007°01'611.6
2017-Aug-09 04:00N 62°16' E 007°01'611.2
2017-Aug-09 03:30N 62°21' E 006°56'510.3
2017-Aug-09 03:00N 62°26' E 006°53'510.8
2017-Aug-09 02:30N 62°28' E 006°42'510.2
2017-Aug-09 02:00N 62°25' E 006°31'610.9
2017-Aug-09 01:30N 62°24' E 006°20'510.8
2017-Aug-09 01:00N 62°22' E 006°09'510.2
2017-Aug-09 00:30N 62°26' E 006°00'4 8.5
2017-Aug-09 00:00N 62°27' E 005°52'4 7.5
2017-Aug-08 23:30N 62°29' E 005°45'4 7.2
2017-Aug-08 23:00N 62°31' E 005°38'81289.8
2017-Aug-08 23:00N 62°36' E 005°24'5 9.6 070 / 71020.410.8 15.511.217.8
2017-Aug-08 22:30N 62°32' E 005°30'3 6.4
2017-Aug-08 22:00N 62°35' E 005°26'4 7.8
2017-Aug-08 21:30N 62°38' E 005°30'3 6.0
2017-Aug-08 21:00N 62°36' E 005°35'4 7.4
2017-Aug-08 20:30N 62°33' E 005°39'4 7.6
2017-Aug-08 20:00N 62°30' E 005°45'4 8.4
2017-Aug-08 19:30N 62°28' E 005°52'5 9.2
2017-Aug-08 19:00N 62°27' E 006°02'510.7
2017-Aug-08 18:30N 62°32' E 006°09'611.2
2017-Aug-08 18:00N 62°36' E 006°17'510.6
2017-Aug-08 17:30N 62°38' E 006°28'612.1
2017-Aug-08 17:01N 62°39' E 006°40'611.5
2017-Aug-08 16:30N 62°41' E 006°52'611.8
2017-Aug-08 16:00N 62°43' E 007°04'10705.5
2017-Aug-08 16:00N 62°36' E 006°48'1325.3 320 / 141018.6 5.4
2017-Aug-08 15:29N 62°44' E 007°09'0 0.0
2017-Aug-08 15:00N 62°44' E 007°09'0 0.0
2017-Aug-08 14:30N 62°44' E 007°09'0 0.0
2017-Aug-08 13:56N 62°44' E 007°09'0 0.0
2017-Aug-08 13:29N 62°44' E 007°09'0 0.0
2017-Aug-08 12:59N 62°44' E 007°09'0 0.0
2017-Aug-08 12:29N 62°44' E 007°09'0 0.0
2017-Aug-08 11:59N 62°44' E 007°09'0 0.0
2017-Aug-08 11:27N 62°44' E 007°09'0 0.0
2017-Aug-08 10:58N 62°44' E 007°09'0 0.0
2017-Aug-08 10:28N 62°44' E 007°09'  
Track history (hours):
 
Tides and Currents Weather Stations Pressure Air Temp Water Temp Dewpoint Dewpoint Depression Visibility Wind Speed Wind Dir Waves Ship Positions

Seabourn Legend

Operator: Cunard Seabourn

Last reported at 2017-Aug-18 10:07 UTC. Time now 2017-Aug-18 10:51 UTC.
Position N 47°38' W 004°45'.

Length 135 m; draft 5.7 m.

Type: Passenger vessel. MMSI: 311085000.

Date/timePositionNaut miles runAvg speedWind from/ knotsBaromVisibWave heightAir tempDewpointWater temp
2017-Aug-18 10:07N 47°38' W 004°45'212.2
2017-Aug-18 09:57N 47°39' W 004°47'612.2
2017-Aug-18 09:30N 47°42' W 004°54'611.9
2017-Aug-18 08:58N 47°46' W 005°01'511.9
2017-Aug-18 08:31N 47°49' W 005°08'611.6
2017-Aug-18 07:59N 47°53' W 005°15'3412.4
2017-Aug-18 05:14N 48°26' W 005°27'312.9
2017-Aug-18 05:00N 48°29' W 005°25'612.7
2017-Aug-18 04:30N 48°34' W 005°21'612.1
2017-Aug-18 04:00N 48°39' W 005°15'611.3
2017-Aug-18 03:30N 48°42' W 005°08'510.8
2017-Aug-18 03:00N 48°45' W 005°01'510.7
2017-Aug-18 02:30N 48°47' W 004°54'510.4
2017-Aug-18 02:00N 48°50' W 004°46'510.1
2017-Aug-18 01:30N 48°51' W 004°39'510.0
2017-Aug-18 01:00N 48°53' W 004°32'5110.9
2017-Aug-17 20:22N 48°60' W 003°16'43 1.6
2017-Aug-16 17:13N 49°22' W 004°12'1711.8
2017-Aug-16 15:46N 49°29' W 004°37'811.7
2017-Aug-16 15:05N 49°31' W 004°48'113.5
2017-Aug-16 14:59N 49°32' W 004°50'713.5
2017-Aug-16 14:28N 49°35' W 004°60'613.5
2017-Aug-16 14:00N 49°37' W 005°09'713.7
2017-Aug-16 13:29N 49°40' W 005°18'4611.7
2017-Aug-16 09:33N 50°18' W 005°60'112.8
2017-Aug-16 09:27N 50°19' W 005°60'1813.2
2017-Aug-16 08:04N 50°37' W 005°60'113.4
2017-Aug-16 07:57N 50°39' W 005°60'613.5
2017-Aug-16 07:30N 50°45' W 006°00'713.7
2017-Aug-16 06:57N 50°52' W 006°00'4913.7
2017-Aug-16 03:23N 51°41' W 005°59'612.9
2017-Aug-16 02:57N 51°47' W 005°57'612.7
2017-Aug-16 02:30N 51°52' W 005°54'612.2
2017-Aug-16 01:59N 51°58' W 005°52'612.1
2017-Aug-16 01:30N 52°04' W 005°51'612.0
2017-Aug-16 01:00N 52°10' W 005°49'611.8
2017-Aug-16 00:30N 52°16' W 005°47'612.8
2017-Aug-16 00:00N 52°22' W 005°46'713.1
2017-Aug-15 23:30N 52°29' W 005°44'713.6
2017-Aug-15 22:58N 52°36' W 005°45'714.1
2017-Aug-15 22:27N 52°43' W 005°45'65 3.2
2017-Aug-15 02:04N 53°47' W 005°30'912.4
2017-Aug-15 01:20N 53°55' W 005°24'713.9
2017-Aug-15 00:51N 54°02' W 005°20'514.3
2017-Aug-15 00:29N 54°06' W 005°16'714.4
2017-Aug-15 00:00N 54°13' W 005°12'715.0
2017-Aug-14 23:31N 54°20' W 005°11'815.0
2017-Aug-14 23:01N 54°28' W 005°11'815.0
2017-Aug-14 22:31N 54°35' W 005°11'713.5
2017-Aug-14 22:00N 54°42' W 005°14'713.9
2017-Aug-14 21:30N 54°47' W 005°21'713.5
2017-Aug-14 21:00N 54°53' W 005°28'713.3
2017-Aug-14 20:30N 54°58' W 005°36'1112.9
2017-Aug-14 19:38N 55°07' W 005°47'212.4
2017-Aug-14 19:30N 55°08' W 005°49'811.5
2017-Aug-14 18:51N 55°14' W 005°57'411.1
2017-Aug-14 18:30N 55°17' W 006°01'611.8
2017-Aug-14 18:00N 55°21' W 006°09'612.2
2017-Aug-14 17:30N 55°23' W 006°19'611.2
2017-Aug-14 17:00N 55°27' W 006°27'611.9
2017-Aug-14 16:30N 55°31' W 006°35'612.8
2017-Aug-14 16:00N 55°35' W 006°43'713.2
2017-Aug-14 15:30N 55°40' W 006°51'713.4
2017-Aug-14 15:00N 55°46' W 006°57'713.3
2017-Aug-14 14:28N 55°52' W 007°02'19710.8
2017-Aug-13 20:14N 58°48' W 004°16'312.1
2017-Aug-13 20:00N 58°48' W 004°11'612.7
2017-Aug-13 19:30N 58°50' W 003°59'612.6
2017-Aug-13 19:01N 58°51' W 003°47'612.2
2017-Aug-13 18:30N 58°53' W 003°36'4 8.5
2017-Aug-13 18:00N 58°53' W 003°27'713.3
2017-Aug-13 17:29N 58°47' W 003°21'714.4
2017-Aug-13 17:00N 58°44' W 003°09'816.5
2017-Aug-13 16:30N 58°43' W 002°53'812.7
2017-Aug-13 15:54N 58°48' W 002°43'514.1
2017-Aug-13 15:31N 58°53' W 002°38'612.7
2017-Aug-13 15:00N 58°59' W 002°39'612.9
2017-Aug-13 14:30N 59°01' W 002°51'4 6.7
2017-Aug-13 13:58N 59°00' W 002°59'0 0.0
2017-Aug-13 13:30N 59°00' W 002°59'0 0.0
2017-Aug-13 13:00N 59°00' W 002°59'0 0.0
2017-Aug-13 12:30N 59°00' W 002°59'0 0.0
2017-Aug-13 12:00N 59°00' W 002°59'0 0.0
2017-Aug-13 11:30N 59°00' W 002°59'0 0.0
2017-Aug-13 10:59N 59°00' W 002°59'0 0.0
2017-Aug-13 10:29N 59°00' W 002°59'0 0.0
2017-Aug-13 09:59N 59°00' W 002°59'0 0.0
2017-Aug-13 09:29N 59°00' W 002°59'0 0.0
2017-Aug-13 08:59N 59°00' W 002°59'0 0.0
2017-Aug-13 08:28N 59°00' W 002°59'0 0.0
2017-Aug-13 07:58N 59°00' W 002°59'0 0.0
2017-Aug-13 07:28N 59°00' W 002°59'0 0.0
2017-Aug-13 06:58N 59°00' W 002°59'0 0.0
2017-Aug-13 06:30N 59°00' W 002°59'0 0.0
2017-Aug-13 06:00N 59°00' W 002°59'0 0.7
2017-Aug-13 05:30N 59°00' W 002°58'4 7.2
2017-Aug-13 05:00N 59°01' W 002°51'5 9.9
2017-Aug-13 04:30N 59°00' W 002°41'712.8
2017-Aug-13 03:56N 59°01' W 002°27'222 7.7
2017-Aug-11 23:19N 60°08' E 004°30'2 5.0
2017-Aug-11 23:00N 60°08' E 004°33'2 4.6
2017-Aug-11 22:30N 60°08' E 004°38'3 5.0
2017-Aug-11 21:59N 60°08' E 004°43'2 4.8
2017-Aug-11 21:30N 60°08' E 004°48'2 5.0
2017-Aug-11 21:00N 60°08' E 004°53'2 4.9
2017-Aug-11 20:30N 60°08' E 004°58'2 4.8
2017-Aug-11 20:00N 60°09' E 005°02'4 7.2
2017-Aug-11 19:30N 60°10' E 005°09'4 8.7
2017-Aug-11 19:00N 60°15' E 005°09'5 9.1
2017-Aug-11 18:30N 60°19' E 005°12'4 8.0
2017-Aug-11 18:00N 60°23' E 005°10'5 9.1
2017-Aug-11 17:30N 60°24' E 005°19'0 0.1
2017-Aug-11 17:00N 60°24' E 005°19'0 0.0
2017-Aug-11 16:30N 60°24' E 005°19'0 0.0
2017-Aug-11 15:59N 60°24' E 005°19'0 0.0
2017-Aug-11 15:29N 60°24' E 005°19'0 0.0
2017-Aug-11 14:59N 60°24' E 005°19'0 0.0
2017-Aug-11 13:58N 60°24' E 005°19'0 0.0
2017-Aug-11 13:28N 60°24' E 005°19'0 0.0
2017-Aug-11 12:58N 60°24' E 005°19'0 0.0
2017-Aug-11 12:28N 60°24' E 005°19'0 0.0
2017-Aug-11 12:00N 60°24' E 005°19'0 0.0
2017-Aug-11 11:30N 60°24' E 005°19'0 0.0
2017-Aug-11 11:00N 60°24' E 005°19'0 0.0
2017-Aug-11 10:30N 60°24' E 005°19'0 0.0
2017-Aug-11 09:56N 60°24' E 005°19'0 0.0
2017-Aug-11 09:29N 60°24' E 005°19'0 0.0
2017-Aug-11 08:59N 60°24' E 005°19'0 0.0
2017-Aug-11 08:29N 60°24' E 005°19'0 0.0
2017-Aug-11 07:59N 60°24' E 005°19'0 0.1
2017-Aug-11 07:30N 60°24' E 005°19'4 8.1
2017-Aug-11 07:00N 60°23' E 005°11'611.0
2017-Aug-11 06:29N 60°26' E 005°02'511.2
2017-Aug-11 06:00N 60°31' E 004°57'611.2
2017-Aug-11 05:30N 60°37' E 004°53'611.3
2017-Aug-11 05:00N 60°42' E 004°49'611.2
2017-Aug-11 04:30N 60°47' E 004°45'510.2
2017-Aug-11 04:00N 60°51' E 004°39'5 9.9
2017-Aug-11 03:30N 60°54' E 004°30'5 9.5
2017-Aug-11 03:00N 60°57' E 004°23'5 9.4
2017-Aug-11 02:30N 61°01' E 004°16'53 8.2
2017-Aug-10 19:59N 61°54' E 004°25'4 9.0
2017-Aug-10 19:30N 61°57' E 004°29'4 8.9
2017-Aug-10 19:00N 62°01' E 004°34'4 8.8
2017-Aug-10 18:30N 62°05' E 004°39'5 9.0
2017-Aug-10 18:00N 62°09' E 004°43'5 9.3
2017-Aug-10 17:30N 62°13' E 004°48'5 9.4
2017-Aug-10 17:00N 62°17' E 004°53'510.0
2017-Aug-10 16:30N 62°21' E 005°00'510.4
2017-Aug-10 15:59N 62°24' E 005°10'510.7
2017-Aug-10 15:29N 62°27' E 005°19'511.0
2017-Aug-10 15:00N 62°30' E 005°29'510.8
2017-Aug-10 14:30N 62°30' E 005°41'712.4
2017-Aug-10 13:58N 62°27' E 005°54'511.9
2017-Aug-10 13:30N 62°27' E 006°06'2 4.2
2017-Aug-10 13:00N 62°28' E 006°09'0 0.0
2017-Aug-10 12:30N 62°28' E 006°09'0 0.0
2017-Aug-10 12:00N 62°28' E 006°09'0 0.0
2017-Aug-10 11:30N 62°28' E 006°09'0 0.0
2017-Aug-10 10:59N 62°28' E 006°09'0 0.0
2017-Aug-10 10:29N 62°28' E 006°09'0 0.0
2017-Aug-10 09:59N 62°28' E 006°09'0 0.0
2017-Aug-10 09:29N 62°28' E 006°09'0 0.0
2017-Aug-10 08:59N 62°28' E 006°09'0 0.0
2017-Aug-10 08:28N 62°28' E 006°09'0 0.0
2017-Aug-10 07:58N 62°28' E 006°09'0 0.0
2017-Aug-10 07:28N 62°28' E 006°09'0 0.0
2017-Aug-10 06:58N 62°28' E 006°09'0 0.0
2017-Aug-10 06:30N 62°28' E 006°09'0 0.0
2017-Aug-10 05:57N 62°28' E 006°09'0 0.0
2017-Aug-10 05:30N 62°28' E 006°09'0 0.0
2017-Aug-10 05:00N 62°28' E 006°09'0 0.0
2017-Aug-10 04:30N 62°28' E 006°09'0 0.0
2017-Aug-10 03:59N 62°28' E 006°09'0 0.0
2017-Aug-10 03:29N 62°28' E 006°09'0 0.0
2017-Aug-10 02:59N 62°28' E 006°09'0 0.0
2017-Aug-10 02:26N 62°28' E 006°09'0 0.0
2017-Aug-10 01:58N 62°28' E 006°09'0 0.0
2017-Aug-10 01:28N 62°28' E 006°09'0 0.1
2017-Aug-10 01:00N 62°28' E 006°09'1 2.3
2017-Aug-10 00:30N 62°27' E 006°09'4 7.1
2017-Aug-10 00:00N 62°24' E 006°04'611.5
2017-Aug-09 23:29N 62°24' E 006°17'611.6
2017-Aug-09 23:00N 62°25' E 006°29'611.7
2017-Aug-09 22:30N 62°27' E 006°41'611.2
2017-Aug-09 22:00N 62°26' E 006°53'510.6
2017-Aug-09 21:29N 62°21' E 006°56'511.2
2017-Aug-09 21:00N 62°16' E 007°01'611.7
2017-Aug-09 20:30N 62°10' E 007°01'4 8.9
2017-Aug-09 20:00N 62°06' E 007°00'3 5.8
2017-Aug-09 19:30N 62°06' E 007°06'2 3.1
2017-Aug-09 19:00N 62°07' E 007°09'1 2.4
2017-Aug-09 18:29N 62°06' E 007°11'0 0.0
2017-Aug-09 17:59N 62°06' E 007°11'0 0.0
2017-Aug-09 17:28N 62°06' E 007°11'0 0.0
2017-Aug-09 16:58N 62°06' E 007°11'0 0.0
2017-Aug-09 16:28N 62°06' E 007°11'0 0.0
2017-Aug-09 15:58N 62°06' E 007°11'0 0.0
2017-Aug-09 15:30N 62°06' E 007°11'0 0.0
2017-Aug-09 15:00N 62°06' E 007°11'0 0.0
2017-Aug-09 14:30N 62°06' E 007°11'0 0.0
2017-Aug-09 14:00N 62°06' E 007°11'0 0.0
2017-Aug-09 13:30N 62°06' E 007°11'0 0.0
2017-Aug-09 12:59N 62°06' E 007°11'0 0.0
2017-Aug-09 12:29N 62°06' E 007°11'0 0.0
2017-Aug-09 11:59N 62°06' E 007°11'0 0.0
2017-Aug-09 11:29N 62°06' E 007°11'0 0.0
2017-Aug-09 10:59N 62°06' E 007°11'0 0.0
2017-Aug-09 10:29N 62°06' E 007°11'0 0.0
2017-Aug-09 09:59N 62°06' E 007°11'0 0.0
2017-Aug-09 09:29N 62°06' E 007°11'0 0.0
2017-Aug-09 08:59N 62°06' E 007°11'0 0.0
2017-Aug-09 08:29N 62°06' E 007°11'0 0.0
2017-Aug-09 08:00N 62°06' E 007°11'0 0.0
2017-Aug-09 07:30N 62°06' E 007°11'0 0.0
2017-Aug-09 06:59N 62°06' E 007°11'0 0.0
2017-Aug-09 06:29N 62°06' E 007°11'0 0.0
2017-Aug-09 05:59N 62°06' E 007°11'6 5.6
2017-Aug-09 04:58N 62°06' E 006°59'4 9.5
2017-Aug-09 04:30N 62°10' E 007°01'611.6
2017-Aug-09 04:00N 62°16' E 007°01'611.2
2017-Aug-09 03:30N 62°21' E 006°56'510.3
2017-Aug-09 03:00N 62°26' E 006°53'510.8
2017-Aug-09 02:30N 62°28' E 006°42'510.2
2017-Aug-09 02:00N 62°25' E 006°31'610.9
2017-Aug-09 01:30N 62°24' E 006°20'510.8
2017-Aug-09 01:00N 62°22' E 006°09'510.2
2017-Aug-09 00:30N 62°26' E 006°00'4 8.5
2017-Aug-09 00:00N 62°27' E 005°52'4 7.5
2017-Aug-08 23:30N 62°29' E 005°45'4 7.2
2017-Aug-08 23:00N 62°31' E 005°38'81289.8
2017-Aug-08 23:00N 62°36' E 005°24'5 9.6 070 / 71020.410.8 15.511.217.8
2017-Aug-08 22:30N 62°32' E 005°30'3 6.4
2017-Aug-08 22:00N 62°35' E 005°26'4 7.8
2017-Aug-08 21:30N 62°38' E 005°30'3 6.0
2017-Aug-08 21:00N 62°36' E 005°35'4 7.4
2017-Aug-08 20:30N 62°33' E 005°39'4 7.6
2017-Aug-08 20:00N 62°30' E 005°45'4 8.4
2017-Aug-08 19:30N 62°28' E 005°52'5 9.2
2017-Aug-08 19:00N 62°27' E 006°02'510.7
2017-Aug-08 18:30N 62°32' E 006°09'611.2
2017-Aug-08 18:00N 62°36' E 006°17'510.6
2017-Aug-08 17:30N 62°38' E 006°28'612.1
2017-Aug-08 17:01N 62°39' E 006°40'611.5
2017-Aug-08 16:30N 62°41' E 006°52'611.8
2017-Aug-08 16:00N 62°43' E 007°04'10705.5
2017-Aug-08 16:00N 62°36' E 006°48'1325.3 320 / 141018.6 5.4
2017-Aug-08 15:29N 62°44' E 007°09'0 0.0
2017-Aug-08 15:00N 62°44' E 007°09'0 0.0
2017-Aug-08 14:30N 62°44' E 007°09'0 0.0
2017-Aug-08 13:56N 62°44' E 007°09'0 0.0
2017-Aug-08 13:29N 62°44' E 007°09'0 0.0
2017-Aug-08 12:59N 62°44' E 007°09'0 0.0
2017-Aug-08 12:29N 62°44' E 007°09'0 0.0
2017-Aug-08 11:59N 62°44' E 007°09'0 0.0
2017-Aug-08 11:27N 62°44' E 007°09'0 0.0
2017-Aug-08 10:58N 62°44' E 007°09'0 0.0
2017-Aug-08 10:28N 62°44' E 007°09'  

Dump ship's entire track history